createdAt,value
2019-05-29T00:01:43.221Z,1.77
2019-05-29T00:04:12.457Z,1.27
2019-05-29T00:06:41.744Z,1.40
2019-05-29T00:09:12.131Z,1.90
2019-05-29T00:11:41.570Z,1.87
2019-05-29T00:14:24.638Z,1.90
2019-05-29T00:16:41.630Z,1.70
2019-05-29T00:19:10.886Z,1.63
2019-05-29T00:21:40.047Z,1.60
2019-05-29T00:24:10.352Z,1.60
2019-05-29T00:26:39.606Z,1.67
2019-05-29T00:29:09.613Z,1.33
2019-05-29T00:31:39.016Z,1.50
2019-05-29T00:34:08.955Z,1.40
2019-05-29T00:36:38.443Z,1.40
2019-05-29T00:39:08.642Z,2.30
2019-05-29T00:41:38.016Z,2.00
2019-05-29T00:44:07.192Z,1.70
2019-05-29T00:46:36.392Z,1.60
2019-05-29T00:49:05.924Z,1.63
2019-05-29T00:51:35.111Z,1.60
2019-05-29T00:54:04.391Z,1.70
2019-05-29T00:56:33.593Z,1.60
2019-05-29T00:59:02.777Z,1.37
2019-05-29T01:01:31.940Z,1.80
2019-05-29T01:04:01.130Z,1.87
2019-05-29T01:06:30.313Z,1.50
2019-05-29T01:08:59.475Z,1.97
2019-05-29T01:11:28.676Z,1.90
2019-05-29T01:13:57.849Z,1.97
2019-05-29T01:16:27.014Z,1.70
2019-05-29T01:18:58.011Z,2.13
2019-05-29T01:21:27.149Z,1.67
2019-05-29T01:23:56.328Z,1.47
2019-05-29T01:26:25.497Z,1.40
2019-05-29T01:28:54.667Z,1.90
2019-05-29T01:31:24.174Z,1.90
2019-05-29T01:33:53.362Z,1.70
2019-05-29T01:36:22.511Z,1.80
2019-05-29T01:38:51.693Z,2.30
2019-05-29T01:41:21.482Z,1.40
2019-05-29T01:43:50.819Z,1.50
2019-05-29T01:46:19.996Z,1.50
2019-05-29T01:48:49.191Z,1.73
2019-05-29T01:51:19.495Z,1.50
2019-05-29T01:53:48.831Z,1.40
2019-05-29T01:56:17.998Z,1.60
2019-05-29T01:58:47.157Z,1.80
2019-05-29T02:01:17.938Z,1.70
2019-05-29T02:03:47.252Z,1.53
2019-05-29T02:06:17.811Z,1.87
2019-05-29T02:08:47.159Z,1.73
2019-05-29T02:11:17.100Z,1.80
2019-05-29T02:13:46.377Z,1.60
2019-05-29T02:16:16.450Z,1.50
2019-05-29T02:18:45.693Z,1.67
2019-05-29T02:21:15.919Z,1.60
2019-05-29T02:23:45.237Z,2.10
2019-05-29T02:26:14.401Z,1.50
2019-05-29T02:28:43.565Z,2.00
2019-05-29T02:31:12.731Z,1.70
2019-05-29T02:33:41.965Z,1.90
2019-05-29T02:36:11.120Z,1.23
2019-05-29T02:38:40.473Z,2.00
2019-05-29T02:41:10.889Z,1.90
2019-05-29T02:43:40.186Z,2.20
2019-05-29T02:46:09.424Z,1.97
2019-05-29T02:48:38.596Z,1.60
2019-05-29T02:51:11.947Z,2.10
2019-05-29T02:53:38.638Z,1.73
2019-05-29T02:56:07.865Z,1.63
2019-05-29T02:58:37.026Z,2.13
2019-05-29T03:01:06.249Z,1.60
2019-05-29T03:03:39.881Z,1.90
2019-05-29T03:06:06.282Z,1.90
2019-05-29T03:08:35.454Z,1.90
2019-05-29T03:11:04.712Z,1.50
2019-05-29T03:13:34.066Z,1.80
2019-05-29T03:16:11.301Z,1.70
2019-05-29T03:18:35.094Z,1.63
2019-05-29T03:21:04.637Z,1.80
2019-05-29T03:23:35.960Z,1.97
2019-05-29T03:26:04.765Z,1.60
2019-05-29T03:28:34.856Z,1.63
2019-05-29T03:31:04.677Z,2.00
2019-05-29T03:33:41.230Z,1.63
2019-05-29T03:36:04.813Z,1.30
2019-05-29T03:38:34.975Z,1.67
2019-05-29T03:41:04.444Z,2.23
2019-05-29T03:43:35.781Z,1.87
2019-05-29T03:46:04.701Z,2.00
2019-05-29T03:48:34.478Z,1.83
2019-05-29T03:51:04.936Z,1.73
2019-05-29T03:53:36.151Z,1.73
2019-05-29T03:56:05.042Z,2.03
2019-05-29T03:58:35.083Z,1.57
2019-05-29T04:01:05.096Z,1.80
2019-05-29T04:03:35.625Z,1.70
2019-05-29T04:06:06.263Z,1.63
2019-05-29T04:08:35.845Z,2.23
2019-05-29T04:11:06.318Z,2.00
2019-05-29T04:13:36.263Z,1.90
2019-05-29T04:16:06.926Z,1.60
2019-05-29T04:18:38.129Z,1.63
2019-05-29T04:21:08.226Z,1.70
2019-05-29T04:23:38.292Z,1.93
2019-05-29T04:26:09.245Z,1.70
2019-05-29T04:28:38.998Z,1.80
2019-05-29T04:31:08.513Z,1.40
2019-05-29T04:33:38.921Z,2.50
2019-05-29T04:36:08.391Z,3.00
2019-05-29T04:38:38.473Z,2.50
2019-05-29T04:41:08.460Z,1.80
2019-05-29T04:43:39.665Z,2.30
2019-05-29T04:46:08.495Z,2.37
2019-05-29T04:48:39.746Z,1.97
2019-05-29T04:51:08.547Z,2.00
2019-05-29T04:53:39.629Z,2.60
2019-05-29T04:56:08.747Z,2.13
2019-05-29T04:58:39.017Z,2.20
2019-05-29T05:01:08.532Z,1.67
2019-05-29T05:03:37.729Z,1.80
2019-05-29T05:06:06.943Z,1.53
2019-05-29T05:08:37.374Z,3.00
2019-05-29T05:11:07.772Z,2.10
2019-05-29T05:13:37.729Z,2.27
2019-05-29T05:16:07.161Z,1.80
2019-05-29T05:18:36.339Z,2.03
2019-05-29T05:21:05.545Z,2.00
2019-05-29T05:23:36.069Z,1.80
2019-05-29T05:26:05.445Z,1.60
2019-05-29T05:28:34.745Z,2.17
2019-05-29T05:31:03.894Z,1.87
2019-05-29T05:33:33.078Z,1.70
2019-05-29T05:36:02.300Z,3.70
2019-05-29T05:38:32.574Z,1.60
2019-05-29T05:41:01.931Z,2.37
2019-05-29T05:43:31.109Z,2.03
2019-05-29T05:46:00.300Z,1.60
2019-05-29T05:48:29.480Z,1.93
2019-05-29T05:50:58.679Z,2.13
2019-05-29T05:53:27.856Z,2.90
2019-05-29T05:55:57.041Z,2.50
2019-05-29T05:58:26.234Z,2.43
2019-05-29T06:00:55.464Z,2.80
2019-05-29T06:03:24.654Z,2.73
2019-05-29T06:05:54.806Z,2.60
2019-05-29T06:08:23.977Z,1.87
2019-05-29T06:10:53.180Z,1.90
2019-05-29T06:13:22.372Z,1.93
2019-05-29T06:15:51.525Z,1.53
2019-05-29T06:18:21.950Z,1.33
2019-05-29T06:20:51.349Z,1.00
2019-05-29T06:23:20.532Z,1.60
2019-05-29T06:25:49.721Z,1.70
2019-05-29T06:28:18.915Z,1.63
2019-05-29T06:30:48.078Z,1.47
2019-05-29T06:33:17.346Z,1.30
2019-05-29T06:35:46.624Z,1.60
2019-05-29T06:38:15.894Z,1.70
2019-05-29T06:40:45.283Z,1.53
2019-05-29T06:43:21.215Z,1.20
2019-05-29T06:45:50.409Z,1.40
2019-05-29T06:48:40.682Z,1.40
2019-05-29T06:50:57.320Z,1.17
2019-05-29T06:53:25.491Z,1.60
2019-05-29T06:55:56.189Z,1.30
2019-05-29T06:58:25.628Z,1.63
2019-05-29T07:00:54.800Z,1.73
2019-05-29T07:03:24.422Z,1.70
2019-05-29T07:05:54.137Z,1.53
2019-05-29T07:08:37.553Z,1.80
2019-05-29T07:10:55.403Z,1.57
2019-05-29T07:13:25.130Z,1.83
2019-05-29T07:15:54.856Z,1.40
2019-05-29T07:18:24.572Z,1.30
2019-05-29T07:20:54.394Z,1.50
2019-05-29T07:23:24.118Z,1.20
2019-05-29T07:25:53.985Z,3.60
2019-05-29T07:28:23.715Z,1.87
2019-05-29T07:31:00.530Z,2.13
2019-05-29T07:33:24.625Z,1.80
2019-05-29T07:35:54.138Z,1.57
2019-05-29T07:38:23.312Z,1.50
2019-05-29T07:40:52.738Z,1.43
2019-05-29T07:43:21.919Z,1.57
2019-05-29T07:46:16.564Z,1.27
2019-05-29T07:48:47.835Z,1.60
2019-05-29T07:51:16.632Z,1.60
2019-05-29T07:53:46.450Z,1.20
2019-05-29T07:56:22.704Z,1.40
2019-05-29T07:58:57.158Z,1.90
2019-05-29T08:01:17.520Z,1.60
2019-05-29T08:03:47.492Z,1.87
2019-05-29T08:06:16.857Z,1.47
2019-05-29T08:08:47.355Z,1.60
2019-05-29T08:11:16.780Z,1.50
2019-05-29T08:13:45.935Z,1.70
2019-05-29T08:16:15.225Z,1.70
2019-05-29T08:18:46.189Z,1.50
2019-05-29T08:21:15.324Z,1.60
2019-05-29T08:23:44.603Z,1.90
2019-05-29T08:26:13.696Z,1.60
2019-05-29T08:28:42.875Z,1.70
2019-05-29T08:31:12.085Z,1.40
2019-05-29T08:33:41.182Z,1.60
2019-05-29T08:36:10.277Z,1.90
2019-05-29T08:38:39.396Z,1.30
2019-05-29T08:41:09.256Z,1.60
2019-05-29T08:43:38.343Z,1.57
2019-05-29T08:46:07.678Z,1.53
2019-05-29T08:48:36.828Z,1.70
2019-05-29T08:51:05.919Z,1.47
2019-05-29T08:53:35.034Z,1.70
2019-05-29T08:56:04.164Z,1.57
2019-05-29T08:58:33.248Z,1.70
2019-05-29T09:01:02.345Z,1.60
2019-05-29T09:03:31.496Z,1.80
2019-05-29T09:06:08.495Z,1.50
2019-05-29T09:08:31.480Z,1.60
2019-05-29T09:11:00.567Z,1.43
2019-05-29T09:13:29.661Z,1.10
2019-05-29T09:15:58.756Z,1.63
2019-05-29T09:18:27.841Z,1.20
2019-05-29T09:21:03.140Z,1.40
2019-05-29T09:23:27.717Z,1.53
2019-05-29T09:26:13.247Z,1.70
2019-05-29T09:28:27.024Z,1.67
2019-05-29T09:30:56.399Z,1.53
2019-05-29T09:33:25.497Z,1.10
2019-05-29T09:35:54.595Z,1.40
2019-05-29T09:38:24.955Z,1.23
2019-05-29T09:40:54.347Z,1.33
2019-05-29T09:43:29.724Z,1.73
2019-05-29T09:45:54.564Z,1.57
2019-05-29T09:48:26.871Z,1.47
2019-05-29T09:50:54.616Z,1.20
2019-05-29T09:53:23.696Z,1.40
2019-05-29T09:55:54.183Z,1.30
2019-05-29T09:58:23.643Z,1.60
2019-05-29T10:01:16.234Z,1.73
2019-05-29T10:03:23.656Z,1.47
2019-05-29T10:05:53.967Z,1.30
2019-05-29T10:08:23.748Z,1.33
2019-05-29T10:11:02.632Z,1.30
2019-05-29T10:13:23.625Z,1.40
2019-05-29T10:15:54.273Z,1.60
2019-05-29T10:18:31.843Z,1.40
2019-05-29T10:20:55.858Z,1.87
2019-05-29T10:23:25.237Z,1.47
2019-05-29T10:25:56.381Z,1.80
2019-05-29T10:28:25.169Z,1.30
2019-05-29T10:30:54.328Z,1.43
2019-05-29T10:33:23.763Z,1.43
2019-05-29T10:35:55.269Z,1.40
2019-05-29T10:38:23.816Z,1.90
2019-05-29T10:41:05.625Z,1.20
2019-05-29T10:43:33.692Z,1.10
2019-05-29T10:45:54.748Z,1.80
2019-05-29T10:48:23.829Z,1.53
2019-05-29T10:50:54.151Z,1.70
2019-05-29T10:53:23.804Z,1.87
2019-05-29T10:55:52.924Z,1.90
2019-05-29T10:58:22.141Z,1.70
2019-05-29T11:00:51.357Z,2.23
2019-05-29T11:03:20.510Z,2.30
2019-05-29T11:05:49.651Z,2.10
2019-05-29T11:08:18.796Z,2.03
2019-05-29T11:10:49.936Z,2.67
2019-05-29T11:13:19.140Z,1.90
2019-05-29T11:15:48.602Z,2.00
2019-05-29T11:18:17.864Z,1.80
2019-05-29T11:20:47.274Z,1.43
2019-05-29T11:23:16.692Z,1.43
2019-05-29T11:25:45.807Z,1.60
2019-05-29T11:28:15.133Z,1.90
2019-05-29T11:30:44.332Z,1.63
2019-05-29T11:33:13.512Z,1.80
2019-05-29T11:35:57.308Z,1.80
2019-05-29T11:38:13.485Z,1.80
2019-05-29T11:40:43.225Z,1.40
2019-05-29T11:43:12.716Z,1.80
2019-05-29T11:45:41.804Z,1.40
2019-05-29T11:48:10.909Z,2.10
2019-05-29T11:50:40.162Z,2.70
2019-05-29T11:53:09.235Z,1.73
2019-05-29T11:55:38.763Z,2.33
2019-05-29T11:58:08.387Z,1.60
2019-05-29T12:00:38.196Z,1.40
2019-05-29T12:03:08.207Z,2.10
2019-05-29T12:05:38.050Z,1.70
2019-05-29T12:08:07.646Z,1.80
2019-05-29T12:10:37.654Z,1.57
2019-05-29T12:13:08.344Z,1.90
2019-05-29T12:15:38.088Z,1.90
2019-05-29T12:18:23.163Z,1.90
2019-05-29T12:20:40.531Z,2.20
2019-05-29T12:23:25.062Z,2.10
2019-05-29T12:25:41.521Z,1.63
2019-05-29T12:28:11.336Z,1.97
2019-05-29T12:30:41.412Z,2.20
2019-05-29T12:33:11.056Z,1.47
2019-05-29T12:35:40.683Z,1.70
2019-05-29T12:38:10.616Z,1.50
2019-05-29T12:40:40.224Z,1.50
2019-05-29T12:43:25.915Z,1.63
2019-05-29T12:45:41.322Z,1.47
2019-05-29T12:48:14.045Z,1.43
2019-05-29T12:50:42.404Z,1.60
2019-05-29T12:53:28.742Z,1.83
2019-05-29T12:55:44.872Z,1.50
2019-05-29T12:58:14.495Z,1.90
2019-05-29T13:00:44.129Z,1.60
2019-05-29T13:03:13.758Z,1.80
2019-05-29T13:05:43.695Z,2.00
2019-05-29T13:08:13.397Z,1.80
2019-05-29T13:10:43.082Z,1.40
2019-05-29T13:13:12.882Z,1.33
2019-05-29T13:15:42.774Z,2.10
2019-05-29T13:18:12.364Z,2.03
2019-05-29T13:20:42.133Z,1.60
2019-05-29T13:23:11.747Z,1.90
2019-05-29T13:25:41.423Z,1.50
2019-05-29T13:28:11.058Z,2.10
2019-05-29T13:30:40.771Z,1.70
2019-05-29T13:33:10.579Z,1.27
2019-05-29T13:35:40.248Z,1.20
2019-05-29T13:38:11.912Z,1.50
2019-05-29T13:40:41.583Z,1.40
2019-05-29T13:43:15.563Z,1.77
2019-05-29T13:45:42.594Z,1.77
2019-05-29T13:48:12.411Z,1.20
2019-05-29T13:50:42.077Z,1.83
2019-05-29T13:53:11.709Z,1.53
2019-05-29T13:55:41.587Z,1.63
2019-05-29T13:58:11.576Z,2.63
2019-05-29T14:00:41.268Z,1.67
2019-05-29T14:03:10.875Z,1.50
2019-05-29T14:05:40.492Z,1.20
2019-05-29T14:08:10.113Z,1.80
2019-05-29T14:10:39.748Z,1.50
2019-05-29T14:13:09.477Z,1.40
2019-05-29T14:15:39.256Z,1.60
2019-05-29T14:18:09.102Z,1.33
2019-05-29T14:20:38.877Z,1.60
2019-05-29T14:23:09.599Z,1.93
2019-05-29T14:25:38.989Z,1.80
2019-05-29T14:28:08.763Z,1.70
2019-05-29T14:30:38.100Z,1.53
2019-05-29T14:33:09.366Z,1.70
2019-05-29T14:35:38.082Z,1.60
2019-05-29T14:38:10.830Z,1.83
2019-05-29T14:40:38.068Z,1.77
2019-05-29T14:43:10.132Z,1.83
2019-05-29T14:45:38.068Z,1.63
2019-05-29T14:48:08.146Z,2.30
2019-05-29T14:50:37.509Z,1.70
2019-05-29T14:53:07.326Z,1.80
2019-05-29T14:55:36.892Z,2.47
2019-05-29T14:58:06.052Z,2.70
2019-05-29T15:00:35.192Z,1.70
2019-05-29T15:03:05.304Z,2.93
2019-05-29T15:05:34.557Z,1.53
2019-05-29T15:08:04.076Z,1.87
2019-05-29T15:10:33.512Z,2.10
2019-05-29T15:13:04.234Z,2.30
2019-05-29T15:15:33.686Z,1.90
2019-05-29T15:18:02.935Z,2.00
2019-05-29T15:20:32.235Z,1.90
2019-05-29T15:23:02.546Z,2.17
2019-05-29T15:25:31.757Z,2.47
2019-05-29T15:28:00.907Z,1.83
2019-05-29T15:30:30.196Z,2.33
2019-05-29T15:32:59.427Z,1.93
2019-05-29T15:35:28.699Z,2.33
2019-05-29T15:37:57.881Z,2.03
2019-05-29T15:40:27.037Z,2.50
2019-05-29T15:42:56.192Z,2.37
2019-05-29T15:45:25.414Z,1.83
2019-05-29T15:47:54.568Z,1.87
2019-05-29T15:50:24.059Z,2.07
2019-05-29T15:52:53.232Z,2.20
2019-05-29T15:55:32.189Z,2.10
2019-05-29T15:57:53.286Z,1.83
2019-05-29T16:00:22.533Z,2.00
2019-05-29T16:02:51.816Z,1.50
2019-05-29T16:05:21.020Z,1.80
2019-05-29T16:07:50.196Z,2.00
2019-05-29T16:10:21.107Z,1.80
2019-05-29T16:12:50.558Z,2.00
2019-05-29T16:15:19.782Z,1.83
2019-05-29T16:17:48.934Z,1.90
2019-05-29T16:20:18.708Z,2.13
2019-05-29T16:22:48.149Z,1.97
2019-05-29T16:25:19.169Z,1.90
2019-05-29T16:27:48.433Z,1.80
2019-05-29T16:30:20.054Z,2.20
2019-05-29T16:32:50.247Z,2.07
2019-05-29T16:35:19.648Z,2.03
2019-05-29T16:37:49.014Z,1.73
2019-05-29T16:40:19.817Z,1.20
2019-05-29T16:42:49.173Z,1.33
2019-05-29T16:45:18.695Z,1.90
2019-05-29T16:47:47.935Z,1.50
2019-05-29T16:50:17.942Z,3.40
2019-05-29T16:52:48.558Z,2.20
2019-05-29T16:55:19.192Z,1.87
2019-05-29T16:57:48.765Z,2.60
2019-05-29T17:00:19.454Z,3.00
2019-05-29T17:02:48.773Z,1.27
2019-05-29T17:05:18.208Z,2.27
2019-05-29T17:07:47.401Z,1.23
2019-05-29T17:10:16.611Z,1.80
2019-05-29T17:12:45.792Z,1.93
2019-05-29T17:15:16.950Z,1.87
2019-05-29T17:17:46.759Z,2.03
2019-05-29T17:20:18.740Z,1.60
2019-05-29T17:22:48.090Z,1.60
2019-05-29T17:25:18.861Z,1.77
2019-05-29T17:27:48.685Z,1.43
2019-05-29T17:30:20.923Z,1.47
2019-05-29T17:32:50.479Z,1.60
2019-05-29T17:35:19.619Z,1.50
2019-05-29T17:37:48.819Z,1.53
2019-05-29T17:40:18.910Z,1.57
2019-05-29T17:42:48.410Z,1.63
2019-05-29T17:45:21.558Z,1.23
2019-05-29T17:47:49.510Z,1.50
2019-05-29T17:50:21.621Z,1.63
2019-05-29T17:52:49.901Z,1.47
2019-05-29T17:55:21.852Z,1.40
2019-05-29T17:57:50.240Z,1.67
2019-05-29T18:00:20.650Z,1.70
2019-05-29T18:02:52.452Z,1.60
2019-05-29T18:05:21.013Z,1.40
2019-05-29T18:07:50.156Z,1.73
2019-05-29T18:10:21.196Z,2.23
2019-05-29T18:12:50.888Z,1.67
2019-05-29T18:15:21.653Z,1.53
2019-05-29T18:17:51.492Z,1.57
2019-05-29T18:20:21.707Z,1.50
2019-05-29T18:22:51.119Z,1.53
2019-05-29T18:25:20.335Z,1.43
2019-05-29T18:27:49.556Z,1.50
2019-05-29T18:30:20.198Z,1.33
2019-05-29T18:32:49.532Z,1.40
2019-05-29T18:35:19.096Z,1.37
2019-05-29T18:37:48.648Z,1.80
2019-05-29T18:40:17.972Z,1.30
2019-05-29T18:42:47.139Z,1.63
2019-05-29T18:45:20.992Z,1.43
2019-05-29T18:47:47.615Z,1.77
2019-05-29T18:50:17.141Z,2.10
2019-05-29T18:52:46.279Z,2.00
2019-05-29T18:55:15.603Z,1.87
2019-05-29T18:57:44.740Z,1.47
2019-05-29T19:00:15.759Z,1.80
2019-05-29T19:02:45.164Z,1.67
2019-05-29T19:05:14.376Z,1.90
2019-05-29T19:07:43.542Z,1.63
2019-05-29T19:10:12.984Z,3.40
2019-05-29T19:12:42.131Z,2.20
2019-05-29T19:15:11.401Z,1.80
2019-05-29T19:17:40.543Z,5.20
2019-05-29T19:20:11.448Z,3.77
2019-05-29T19:22:40.582Z,3.43
2019-05-29T19:25:10.015Z,2.57
2019-05-29T19:27:42.172Z,2.33
2019-05-29T19:30:10.864Z,2.13
2019-05-29T19:32:40.020Z,2.90
2019-05-29T19:35:09.351Z,2.87
2019-05-29T19:37:38.700Z,2.20
2019-05-29T19:40:08.093Z,2.50
2019-05-29T19:42:37.374Z,2.37
2019-05-29T19:45:08.786Z,2.37
2019-05-29T19:47:37.990Z,2.33
2019-05-29T19:50:10.890Z,2.20
2019-05-29T19:52:39.344Z,2.10
2019-05-29T19:55:08.664Z,3.10
2019-05-29T19:57:52.443Z,2.90
2019-05-29T20:00:09.027Z,2.80
2019-05-29T20:02:38.453Z,2.27
2019-05-29T20:05:07.855Z,2.77
2019-05-29T20:07:37.993Z,3.50
2019-05-29T20:10:07.283Z,3.13
2019-05-29T20:12:37.907Z,2.60
2019-05-29T20:15:08.056Z,2.80
2019-05-29T20:17:38.326Z,3.60
2019-05-29T20:20:08.435Z,4.50
2019-05-29T20:22:38.936Z,3.33
2019-05-29T20:25:08.846Z,4.30
2019-05-29T20:27:38.499Z,4.20
2019-05-29T20:30:09.591Z,3.70
2019-05-29T20:32:39.056Z,3.70
2019-05-29T20:35:08.502Z,3.73
2019-05-29T20:37:38.392Z,3.10
2019-05-29T20:40:07.823Z,3.10
2019-05-29T20:42:38.339Z,3.50
2019-05-29T20:45:07.958Z,3.30
2019-05-29T20:47:37.989Z,3.43
2019-05-29T20:50:08.000Z,3.27
2019-05-29T20:52:37.415Z,3.47
2019-05-29T20:55:06.856Z,3.40
2019-05-29T20:57:36.057Z,3.43
2019-05-29T21:00:05.914Z,3.63
2019-05-29T21:02:36.053Z,3.53
2019-05-29T21:05:05.751Z,3.33
2019-05-29T21:07:34.896Z,5.30
2019-05-29T21:10:04.855Z,3.23
2019-05-29T21:12:35.145Z,2.87
2019-05-29T21:15:04.684Z,2.70
2019-05-29T21:17:33.847Z,3.30
2019-05-29T21:20:03.132Z,2.50
2019-05-29T21:22:32.279Z,2.60
2019-05-29T21:25:07.651Z,2.70
2019-05-29T21:27:32.305Z,2.37
2019-05-29T21:30:01.424Z,3.10
2019-05-29T21:32:30.580Z,2.90
2019-05-29T21:34:59.684Z,2.47
2019-05-29T21:37:28.783Z,2.43
2019-05-29T21:39:57.950Z,2.50
2019-05-29T21:42:27.040Z,2.80
2019-05-29T21:44:56.123Z,2.77
2019-05-29T21:47:25.215Z,2.23
2019-05-29T21:49:54.300Z,2.30
2019-05-29T21:52:23.394Z,2.20
2019-05-29T21:54:52.517Z,2.70
2019-05-29T21:57:21.696Z,2.97
2019-05-29T21:59:50.787Z,2.43
2019-05-29T22:02:19.912Z,2.30
2019-05-29T22:04:49.091Z,2.40
2019-05-29T22:07:18.439Z,2.10
2019-05-29T22:09:48.576Z,2.47
2019-05-29T22:12:17.655Z,2.73
2019-05-29T22:14:46.820Z,2.50
2019-05-29T22:17:16.068Z,2.43
2019-05-29T22:19:45.143Z,2.40
2019-05-29T22:22:14.241Z,2.30
2019-05-29T22:24:43.340Z,2.97
2019-05-29T22:27:12.495Z,2.87
2019-05-29T22:29:41.594Z,2.50
2019-05-29T22:32:10.699Z,2.37
2019-05-29T22:34:39.786Z,2.90
2019-05-29T22:37:08.880Z,2.67
2019-05-29T22:39:38.058Z,3.13
2019-05-29T22:42:07.204Z,3.20
2019-05-29T22:44:36.289Z,2.43
2019-05-29T22:47:05.393Z,2.80
2019-05-29T22:49:34.494Z,2.50
2019-05-29T22:52:03.656Z,2.80
2019-05-29T22:54:32.759Z,2.90
2019-05-29T22:57:02.143Z,2.83
2019-05-29T22:59:32.383Z,5.00
2019-05-29T23:02:02.562Z,2.60
2019-05-29T23:04:31.831Z,2.63
2019-05-29T23:07:00.936Z,2.70
2019-05-29T23:09:31.112Z,2.87
2019-05-29T23:12:00.421Z,3.10
2019-05-29T23:14:29.679Z,2.67
2019-05-29T23:16:58.788Z,4.10
2019-05-29T23:19:27.874Z,5.67
2019-05-29T23:21:56.972Z,3.00
2019-05-29T23:24:26.053Z,3.20
2019-05-29T23:26:56.706Z,3.07
2019-05-29T23:29:25.945Z,3.67
2019-05-29T23:31:55.052Z,3.00
2019-05-29T23:34:24.135Z,3.17
2019-05-29T23:36:53.301Z,2.90
2019-05-29T23:39:22.378Z,3.30
2019-05-29T23:41:51.457Z,3.00
2019-05-29T23:44:20.562Z,2.87
2019-05-29T23:46:49.715Z,2.50
2019-05-29T23:49:18.797Z,2.67
2019-05-29T23:51:47.885Z,3.00
2019-05-29T23:54:16.970Z,3.10
2019-05-29T23:56:46.045Z,3.40
2019-05-29T23:59:15.143Z,2.90
